createdAt,value
2023-04-16T00:01:28.391Z,44.60
2023-04-16T00:03:55.785Z,38.85
2023-04-16T00:06:23.196Z,41.20
2023-04-16T00:08:50.417Z,38.67
2023-04-16T00:11:17.302Z,40.72
2023-04-16T00:13:43.782Z,41.22
2023-04-16T00:16:10.299Z,44.05
2023-04-16T00:18:36.720Z,42.08
2023-04-16T00:21:03.306Z,43.03
2023-04-16T00:23:29.778Z,44.95
2023-04-16T00:25:59.991Z,46.33
2023-04-16T00:28:27.669Z,42.33
2023-04-16T00:30:54.642Z,43.35
2023-04-16T00:33:21.834Z,40.22
2023-04-16T00:35:48.608Z,38.63
2023-04-16T00:40:41.435Z,39.33
2023-04-16T00:43:07.924Z,38.17
2023-04-16T00:45:34.915Z,39.33
2023-04-16T00:48:02.008Z,45.63
2023-04-16T00:50:29.452Z,39.00
2023-04-16T00:52:56.880Z,42.95
2023-04-16T00:55:23.561Z,43.83
2023-04-16T00:57:50.041Z,47.03
2023-04-16T01:00:16.927Z,39.10
2023-04-16T01:02:43.614Z,41.53
2023-04-16T01:07:41.065Z,36.78
2023-04-16T01:10:09.218Z,42.78
2023-04-16T01:12:35.867Z,40.90
2023-04-16T01:15:03.156Z,41.03
2023-04-16T01:17:29.699Z,35.95
2023-04-16T01:20:00.126Z,42.65
2023-04-16T01:22:28.543Z,38.38
2023-04-16T01:24:55.615Z,46.65
2023-04-16T01:27:26.071Z,44.28
2023-04-16T01:29:52.814Z,38.65
2023-04-16T01:34:45.958Z,38.15
2023-04-16T01:51:15.032Z,47.70
2023-04-16T01:53:41.597Z,52.67
2023-04-16T01:56:08.585Z,46.40
2023-04-16T01:58:37.995Z,45.65
2023-04-16T02:01:07.863Z,50.50
2023-04-16T02:03:35.332Z,44.83
2023-04-16T02:06:02.256Z,47.22
2023-04-16T02:10:56.848Z,50.42
2023-04-16T02:13:25.701Z,47.08
2023-04-16T02:15:52.980Z,51.92
2023-04-16T02:18:19.671Z,47.60
2023-04-16T02:20:50.001Z,52.58
2023-04-16T02:23:19.930Z,50.22
2023-04-16T02:25:47.524Z,55.63
2023-04-16T02:28:18.307Z,51.47
2023-04-16T02:30:45.263Z,56.88
2023-04-16T02:33:13.377Z,56.30
2023-04-16T02:35:40.888Z,43.42
2023-04-16T02:38:08.504Z,55.05
2023-04-16T02:40:35.339Z,41.70
2023-04-16T02:45:28.757Z,48.92
2023-04-16T02:47:55.583Z,53.17
2023-04-16T02:52:48.942Z,50.92
2023-04-16T02:55:16.472Z,52.85
2023-04-16T02:57:43.226Z,48.58
2023-04-16T03:02:37.016Z,48.50
2023-04-16T03:07:30.246Z,54.80
2023-04-16T03:09:56.909Z,39.38
2023-04-16T03:12:23.481Z,62.50
2023-04-16T03:14:51.699Z,50.42
2023-04-16T03:17:18.127Z,41.00
2023-04-16T03:19:44.610Z,49.15
2023-04-16T03:22:11.131Z,46.05
2023-04-16T03:24:38.250Z,45.13
2023-04-16T03:27:04.687Z,43.67
2023-04-16T03:29:31.109Z,37.47
2023-04-16T03:31:57.752Z,37.88
2023-04-16T03:36:50.646Z,38.10
2023-04-16T03:39:17.128Z,42.78
2023-04-16T03:41:43.550Z,43.45
2023-04-16T03:44:09.990Z,43.25
2023-04-16T03:46:36.592Z,46.33
2023-04-16T03:49:03.084Z,44.15
2023-04-16T03:51:29.616Z,50.05
2023-04-16T03:53:56.073Z,50.67
2023-04-16T03:56:22.497Z,51.22
2023-04-16T03:58:49.010Z,49.63
2023-04-16T04:01:15.449Z,55.05
2023-04-16T04:03:42.323Z,58.78
2023-04-16T04:06:09.495Z,45.90
2023-04-16T04:08:36.040Z,54.20
2023-04-16T04:11:02.468Z,49.63
2023-04-16T04:13:28.932Z,61.28
2023-04-16T04:15:55.467Z,54.63
2023-04-16T04:18:22.007Z,61.25
2023-04-16T04:20:48.564Z,59.47
2023-04-16T04:23:15.037Z,49.50
2023-04-16T04:25:41.458Z,55.50
2023-04-16T04:28:07.932Z,55.40
2023-04-16T04:30:35.888Z,52.83
2023-04-16T04:33:02.713Z,44.80
2023-04-16T04:35:29.176Z,50.60
2023-04-16T04:37:55.754Z,51.15
2023-04-16T04:40:22.419Z,53.53
2023-04-16T04:42:49.084Z,51.78
2023-04-16T04:45:16.084Z,51.22
2023-04-16T04:47:42.691Z,44.88
2023-04-16T04:50:09.691Z,50.92
2023-04-16T04:52:36.333Z,55.60
2023-04-16T04:55:02.782Z,50.58
2023-04-16T04:57:29.257Z,48.97
2023-04-16T04:59:55.936Z,48.72
2023-04-16T05:02:22.519Z,47.75
2023-04-16T05:07:16.467Z,41.40
2023-04-16T05:09:42.895Z,46.95
2023-04-16T05:12:09.314Z,39.72
2023-04-16T05:14:36.473Z,39.28
2023-04-16T05:17:03.081Z,43.53
2023-04-16T05:19:29.721Z,41.17
2023-04-16T05:21:56.288Z,42.97
2023-04-16T05:24:23.312Z,43.85
2023-04-16T05:26:49.811Z,40.63
2023-04-16T05:29:16.247Z,44.47
2023-04-16T05:31:42.767Z,41.47
2023-04-16T05:34:09.300Z,44.72
2023-04-16T05:36:35.806Z,39.67
2023-04-16T05:39:02.278Z,45.97
2023-04-16T05:41:28.923Z,40.92
2023-04-16T05:43:55.373Z,51.42
2023-04-16T05:46:21.865Z,44.85
2023-04-16T05:48:48.383Z,43.78
2023-04-16T05:51:14.853Z,39.08
2023-04-16T05:53:41.812Z,43.10
2023-04-16T05:56:08.451Z,50.33
2023-04-16T05:58:34.952Z,46.22
2023-04-16T06:01:04.506Z,45.90
2023-04-16T06:03:31.214Z,43.83
2023-04-16T06:08:24.314Z,43.85
2023-04-16T06:10:51.271Z,48.22
2023-04-16T06:13:17.730Z,47.33
2023-04-16T06:15:44.189Z,44.03
2023-04-16T06:18:10.712Z,53.90
2023-04-16T06:20:37.205Z,47.72
2023-04-16T06:23:03.629Z,45.83
2023-04-16T06:25:30.134Z,47.58
2023-04-16T06:27:56.614Z,54.05
2023-04-16T06:30:23.104Z,45.00
2023-04-16T06:32:49.847Z,47.78
2023-04-16T06:38:58.538Z,54.20
2023-04-16T06:41:26.794Z,48.20
2023-04-16T06:43:53.309Z,45.25
2023-04-16T06:46:32.638Z,45.97
2023-04-16T06:48:59.121Z,49.30
2023-04-16T06:51:26.769Z,46.90
2023-04-16T06:53:53.246Z,53.45
2023-04-16T06:56:19.739Z,40.75
2023-04-16T06:58:46.187Z,48.95
2023-04-16T07:01:12.728Z,50.20
2023-04-16T07:03:39.566Z,41.50
2023-04-16T07:06:24.214Z,46.80
2023-04-16T07:08:50.766Z,48.50
2023-04-16T07:11:19.031Z,49.47
2023-04-16T07:13:45.527Z,48.08
2023-04-16T07:16:12.161Z,43.95
2023-04-16T07:21:05.266Z,43.60
2023-04-16T07:23:31.797Z,48.65
2023-04-16T07:25:58.220Z,52.58
2023-04-16T07:28:25.520Z,42.85
2023-04-16T07:30:52.035Z,50.38
2023-04-16T07:33:18.612Z,53.90
2023-04-16T07:35:45.482Z,48.60
2023-04-16T07:38:11.979Z,43.47
2023-04-16T07:40:38.522Z,42.38
2023-04-16T07:43:04.959Z,41.53
2023-04-16T07:45:31.396Z,41.35
2023-04-16T07:47:57.890Z,40.58
2023-04-16T07:50:25.472Z,40.15
2023-04-16T07:52:51.924Z,40.95
2023-04-16T07:55:18.409Z,47.25
2023-04-16T07:57:44.835Z,45.58
2023-04-16T08:00:11.782Z,41.67
2023-04-16T08:02:38.608Z,40.58
2023-04-16T08:05:05.599Z,41.72
2023-04-16T08:07:33.332Z,36.92
2023-04-16T08:10:00.986Z,43.53
2023-04-16T08:12:27.483Z,45.85
2023-04-16T08:14:53.914Z,35.42
2023-04-16T08:17:20.376Z,33.70
2023-04-16T08:19:46.996Z,38.83
2023-04-16T08:22:13.895Z,41.05
2023-04-16T13:34:39.474Z,15.48
2023-04-16T13:37:06.394Z,14.90
2023-04-16T13:39:33.722Z,14.43
2023-04-16T13:42:00.340Z,15.60
2023-04-16T13:44:26.878Z,12.40
2023-04-16T13:46:53.538Z,12.68
2023-04-16T13:49:20.295Z,16.05
2023-04-16T13:54:13.138Z,12.32
2023-04-16T13:56:39.851Z,12.93
2023-04-16T14:01:33.070Z,14.55
2023-04-16T14:04:05.983Z,13.18
2023-04-16T14:06:33.564Z,12.52
2023-04-16T14:09:00.053Z,13.30
2023-04-16T14:11:26.700Z,13.20
2023-04-16T14:13:53.209Z,15.93
2023-04-16T14:16:19.887Z,12.07
2023-04-16T14:21:13.439Z,12.80
2023-04-16T14:23:39.916Z,10.85
2023-04-16T14:26:06.409Z,11.95
2023-04-16T14:28:33.072Z,9.80
2023-04-16T14:30:59.467Z,9.23
2023-04-16T14:33:26.058Z,12.43
2023-04-16T14:35:52.658Z,10.50
2023-04-16T14:38:19.110Z,12.88
2023-04-16T14:40:45.681Z,12.63
2023-04-16T14:43:12.247Z,10.90
2023-04-16T14:45:39.149Z,19.45
2023-04-16T14:48:06.307Z,10.23
2023-04-16T14:50:37.920Z,11.77
2023-04-16T14:53:07.456Z,9.75
2023-04-16T14:55:33.920Z,9.38
2023-04-16T14:58:00.392Z,12.98
2023-04-16T15:00:27.554Z,12.43
2023-04-16T15:02:55.053Z,10.60
2023-04-16T15:05:22.141Z,9.90
2023-04-16T15:07:48.607Z,11.93
2023-04-16T15:10:15.132Z,12.23
2023-04-16T15:12:41.571Z,13.02
2023-04-16T15:15:09.041Z,14.45
2023-04-16T15:17:35.719Z,11.70
2023-04-16T15:20:02.704Z,13.00
2023-04-16T15:22:29.246Z,13.50
2023-04-16T15:24:55.998Z,10.20
2023-04-16T15:29:49.579Z,11.77
2023-04-16T15:32:16.213Z,12.43
2023-04-16T15:34:42.698Z,9.10
2023-04-16T15:37:09.743Z,18.25
2023-04-16T15:39:36.364Z,16.00
2023-04-16T15:42:06.988Z,12.90
2023-04-16T15:44:34.739Z,13.55
2023-04-16T15:47:01.374Z,9.05
2023-04-16T15:49:27.974Z,11.45
2023-04-16T15:51:55.595Z,11.80
2023-04-16T15:54:26.337Z,12.75
2023-04-16T15:56:52.862Z,13.38
2023-04-16T15:59:19.333Z,15.18
2023-04-16T16:01:46.076Z,13.98
2023-04-16T16:06:39.286Z,15.98
2023-04-16T16:09:06.253Z,15.57
2023-04-16T16:11:32.807Z,15.93
2023-04-16T16:14:01.471Z,13.88
2023-04-16T16:16:28.662Z,14.50
2023-04-16T16:19:15.815Z,16.48
2023-04-16T16:21:42.926Z,16.73
2023-04-16T16:24:09.657Z,15.15
2023-04-16T16:29:02.677Z,13.77
2023-04-16T16:31:29.226Z,12.40
2023-04-16T16:33:55.752Z,16.08
2023-04-16T16:36:22.293Z,14.98
2023-04-16T16:38:48.819Z,13.57
2023-04-16T16:41:15.343Z,12.90
2023-04-16T16:43:41.865Z,14.23
2023-04-16T16:46:09.978Z,20.27
2023-04-16T16:48:36.878Z,14.00
2023-04-16T16:51:03.555Z,11.43
2023-04-16T16:53:30.329Z,15.90
2023-04-16T16:58:27.735Z,17.63
2023-04-16T17:00:54.344Z,17.67
2023-04-16T17:03:21.021Z,14.77
2023-04-16T17:08:15.045Z,15.20
2023-04-16T17:10:43.847Z,13.63
2023-04-16T17:13:10.773Z,19.05
2023-04-16T17:15:37.690Z,14.63
2023-04-16T17:18:06.793Z,16.23
2023-04-16T17:20:34.154Z,16.60
2023-04-16T17:23:01.189Z,13.95
2023-04-16T17:25:27.843Z,15.98
2023-04-16T17:27:54.453Z,13.57
2023-04-16T17:30:26.017Z,18.75
2023-04-16T17:32:52.980Z,14.18
2023-04-16T17:35:19.790Z,14.02
2023-04-16T17:40:14.571Z,12.95
2023-04-16T17:42:41.456Z,13.80
2023-04-16T17:47:36.415Z,13.82
2023-04-16T17:50:05.434Z,13.80
2023-04-16T17:52:32.188Z,12.40
2023-04-16T17:57:28.657Z,9.93
2023-04-16T17:59:55.457Z,14.88
2023-04-16T18:02:22.441Z,15.63
2023-04-16T18:04:51.640Z,12.93
2023-04-16T18:07:18.387Z,14.23
2023-04-16T18:09:45.018Z,13.98
2023-04-16T18:12:14.163Z,18.02
2023-04-16T18:14:40.801Z,15.98
2023-04-16T18:17:11.193Z,12.32
2023-04-16T18:19:39.487Z,14.82
2023-04-16T18:22:06.068Z,12.73
2023-04-16T18:24:35.376Z,13.65
2023-04-16T18:27:05.855Z,12.88
2023-04-16T18:29:34.092Z,16.10
2023-04-16T18:32:03.722Z,15.35
2023-04-16T18:34:31.657Z,17.90
2023-04-16T18:37:01.256Z,15.43
2023-04-16T18:39:27.912Z,14.70
2023-04-16T18:42:29.557Z,28.52
2023-04-16T18:44:56.501Z,16.10
2023-04-16T18:47:23.313Z,14.90
2023-04-16T18:52:16.654Z,13.50
2023-04-16T18:57:12.458Z,16.55
2023-04-16T18:59:39.010Z,14.68
2023-04-16T19:02:05.684Z,14.10
2023-04-16T19:06:58.904Z,13.80
2023-04-16T19:09:27.120Z,10.50
2023-04-16T19:11:58.951Z,17.25
2023-04-16T19:14:28.416Z,11.50
2023-04-16T19:16:58.786Z,11.35
2023-04-16T19:26:58.886Z,14.25
2023-04-16T19:29:25.764Z,14.25
2023-04-16T19:31:54.024Z,11.77
2023-04-16T19:34:23.449Z,13.50
2023-04-16T19:36:53.216Z,12.07
2023-04-16T19:39:24.127Z,10.23
2023-04-16T19:41:54.068Z,9.93
2023-04-16T19:44:27.960Z,10.95
2023-04-16T19:46:58.098Z,10.30
2023-04-16T19:49:40.298Z,12.43
2023-04-16T19:52:09.616Z,12.07
2023-04-16T19:54:48.692Z,9.23
2023-04-16T19:57:33.310Z,12.05
2023-04-16T20:00:14.890Z,15.85
2023-04-16T20:02:48.916Z,12.40
2023-04-16T20:05:32.595Z,17.30
2023-04-16T20:08:03.336Z,11.45
2023-04-16T20:10:33.043Z,13.38
2023-04-16T20:13:01.200Z,11.82
2023-04-16T20:15:39.704Z,11.65
2023-04-16T20:18:11.522Z,14.07
2023-04-16T20:20:41.881Z,11.50
2023-04-16T20:23:22.423Z,14.50
2023-04-16T20:25:53.435Z,11.25
2023-04-16T20:28:21.669Z,14.65
2023-04-16T20:31:00.978Z,13.68
2023-04-16T20:33:48.390Z,12.50
2023-04-16T20:36:33.215Z,19.20
2023-04-16T20:39:14.018Z,16.25
2023-04-16T20:41:44.021Z,13.75
2023-04-16T20:44:20.874Z,13.80
2023-04-16T20:46:57.177Z,14.73
2023-04-16T20:49:28.928Z,10.95
2023-04-16T20:51:58.583Z,15.73
2023-04-16T20:54:25.946Z,13.07
2023-04-16T20:57:21.074Z,13.10
2023-04-16T21:03:57.253Z,13.48
2023-04-16T21:06:50.579Z,14.85
2023-04-16T21:09:40.205Z,13.60
2023-04-16T21:12:38.056Z,12.07
2023-04-16T21:15:10.566Z,10.88
2023-04-16T21:17:46.638Z,15.85
2023-04-16T21:20:14.081Z,12.48
2023-04-16T21:22:40.794Z,10.27
2023-04-16T21:25:07.830Z,15.85
2023-04-16T21:27:34.335Z,15.52
2023-04-16T21:30:03.326Z,14.63
2023-04-16T21:32:29.801Z,14.15
2023-04-16T21:34:56.263Z,14.52
2023-04-16T21:37:22.729Z,14.20
2023-04-16T21:39:49.173Z,19.92
2023-04-16T21:42:15.656Z,14.43
2023-04-16T21:44:42.195Z,16.75
2023-04-16T21:47:08.682Z,20.08
2023-04-16T21:49:35.157Z,18.77
2023-04-16T21:52:02.525Z,18.25
2023-04-16T21:54:29.028Z,16.65
2023-04-16T21:56:55.493Z,14.90
2023-04-16T21:59:21.935Z,14.00
2023-04-16T22:01:48.418Z,19.83
2023-04-16T22:04:14.990Z,15.23
2023-04-16T22:06:41.510Z,14.02
2023-04-16T22:09:08.046Z,13.35
2023-04-16T22:11:34.476Z,15.82
2023-04-16T22:14:00.992Z,21.80
2023-04-16T22:16:28.773Z,19.38
2023-04-16T22:18:56.627Z,21.23
2023-04-16T22:21:23.245Z,17.90
2023-04-16T22:23:49.857Z,15.45
2023-04-16T22:26:16.493Z,19.52
2023-04-16T22:28:43.013Z,20.52
2023-04-16T22:31:10.170Z,18.60
2023-04-16T22:33:36.764Z,16.98
2023-04-16T22:36:03.478Z,21.77
2023-04-16T22:38:30.022Z,20.13
2023-04-16T22:40:56.484Z,16.80
2023-04-16T22:43:23.051Z,15.93
2023-04-16T22:45:49.662Z,18.83
2023-04-16T22:48:16.562Z,18.63
2023-04-16T22:50:48.357Z,19.77
2023-04-16T22:53:14.940Z,17.15
2023-04-16T22:55:41.453Z,17.45
2023-04-16T22:58:07.901Z,22.17
2023-04-16T23:00:34.341Z,18.75
2023-04-16T23:03:01.022Z,18.23
2023-04-16T23:07:54.055Z,18.50
2023-04-16T23:10:20.682Z,17.25
2023-04-16T23:12:47.198Z,17.58
2023-04-16T23:15:14.473Z,18.92
2023-04-16T23:17:43.847Z,17.02
2023-04-16T23:20:12.180Z,20.95
2023-04-16T23:22:39.332Z,19.80
2023-04-16T23:25:07.941Z,24.65
2023-04-16T23:27:35.316Z,18.30
2023-04-16T23:30:02.054Z,22.50
2023-04-16T23:34:55.200Z,23.85
2023-04-16T23:37:21.877Z,21.23
2023-04-16T23:42:14.810Z,22.70
2023-04-16T23:44:41.347Z,23.98
2023-04-16T23:47:07.889Z,19.88
2023-04-16T23:49:34.358Z,21.02
2023-04-16T23:52:00.971Z,24.00
2023-04-16T23:54:27.618Z,22.73
2023-04-16T23:56:54.129Z,23.02
2023-04-16T23:59:20.770Z,22.10
